KBML/BML METAR and TAF weather

Enter ICAO airport designator
Station Type Date Time Source
KBML METAR 2021/04/13 22:52 UTC NOAA

KBML 132252Z AUTO 00000KT 10SM OVC065 17/04 A2999 RMK AO2 SLP158 T01670044


Station Type Date Time Source
KBML Decoded METAR 2021/04/13 22:52 UTC NOAA

BERLIN MUNICIPAL AIRPORT, NH, United States (KBML) 44-35N 71-11W 345M
Apr 13, 2021 - 06:52 PM EDT / 2021.04.13 2252 UTC
Wind: Calm:0
Visibility: 10 mile(s):0
Sky conditions: overcast
Temperature: 62.1 F (16.7 C)
Dew Point: 39.9 F (4.4 C)
Relative Humidity: 43%
Pressure (altimeter): 29.99 in. Hg (1015 hPa)
ob: KBML 132252Z AUTO 00000KT 10SM OVC065 17/04 A2999 RMK AO2 SLP158 T01670044
cycle: 23

Station Type Date Time Source
KBML TAF UTC NOAA

Error!

Example: see airport list